Julesburg, CO (80737)

5:08 PM MDT on July 24, 2014 (GMT -0600)
Holyoke Municipal (KHEQ) Elev 3730 ft | 40.57 °N, 102.28 °W | Change Station

Current weather conditions updated 13 minutes ago

Overcast
Overcast
82 °F
Feels Like 82 °F
N
25
Wind Variable Wind from NNW
Gusts 30 mph

Tomorrow is forecast to be Cooler than today.

Today
High -- | Low -- °F
--% Chance of Precip.
Yesterday
High -- | Low -- °F
Precip. -- in
5:37 AM 8:12 PM
Waning Crescent, 4% visible
Pressure 29.89 in
Visibility 7.0 miles
Clouds Scattered Clouds 4800 ft
Scattered Clouds 6500 ft
Overcast 12000 ft
Heat Index 82 °F
Dew Point 57 °F
Humidity 42%
Rainfall 0.00 in
Snow Depth Not available.
UV 1 out of 12
Pollen 7.20 out of 12
Air Quality Not available.
Flu Activity Not available.
METAR KHEQ 242255Z AUTO 33022G26KT 7SM +TSRA SCT048 SCT065 OVC120 28/14 A2989 RMK AO2 LTG DSNT ALQS

More Conditions Fewer Conditions

Pressure 29.89 in
Visibility 7.0 miles
Clouds Scattered Clouds 4800 ft
Scattered Clouds 6500 ft
Overcast 12000 ft
Heat Index 82 °F
Dew Point 57 °F
Humidity 42%
Rainfall 0.00 in
Snow Depth Not available.
UV 1 out of 12
Pollen 7.20 out of 12
Air Quality Not available.
Flu Activity Not available.
METAR KHEQ 242255Z AUTO 33022G26KT 7SM +TSRA SCT048 SCT065 OVC120 28/14 A2989 RMK AO2 LTG DSNT ALQS

More Conditions Fewer Conditions

10-Day Weather Forecast

Almanac

Astronomy

Jul. 24, 2014 Rise Set
Actual Time 5:37 AM MDT 8:12 PM MDT
Civil Twilight 5:05 AM MDT 8:43 PM MDT
Nautical Twilight 4:26 AM MDT 9:23 PM MDT
Astronomical Twilight 3:41 AM MDT 10:07 PM MDT
Moon 3:47 AM MDT 6:28 PM MDT
Length of Visible Light 15h 38m
Length of Day
14h 34m
Tomorrow will be 1m 49s shorter.
Waning Crescent, 4% of the Moon is Illuminated
Today
Waning Crescent
Jul 26
New
Aug 3
First Quarter
Aug 10
Full
Aug 17
Last Quarter

Today's Extremes

State Highs State Lows

Community

WunderPhotos

Upload Photos

1,737,158 photos uploaded!

Nearby

Snow Depth

Station Depth Elevation
Niwot 0 in 9910 ft
Lake Irene 2 in 10700 ft
Rawah 11 in 9020 ft
Roach 0 in 9700 ft
Grizzly Peak 4 in 11100 ft

Earthquake Activity

City Distance Mag. Time & Date
No recent earthquake activity has been reported nearby.
Minimum magnitude displayed is 2.5.

Coastal Water Temperatures

Place Temperature
No Stations Reporting

Nearby Weather Stations

Station Location Temp. Heat Index Dew Point Humidity Wind Precip. Elev Updated Type
MesoWest BIGSWS , Big Springs, NE 100 °F 94 °F - - South  at  3 mph 0.00 in / hr 3356 ft 4:00 PM MDT MADIS

Show More Stations Show Fewer Stations